createdAt,value
2019-04-07T17:28:00.438Z,19.50
2019-04-07T17:30:28.989Z,19.30
2019-04-07T17:32:58.591Z,19.20
2019-04-07T17:35:28.456Z,19.10
2019-04-07T17:38:03.568Z,19.00
2019-04-07T17:40:45.208Z,18.90
2019-04-07T17:43:40.576Z,18.80
2019-04-07T17:46:25.897Z,18.60
2019-04-07T17:49:13.566Z,18.60
2019-04-07T17:51:53.432Z,18.40
2019-04-07T17:54:42.835Z,18.30
2019-04-07T17:57:36.625Z,18.30
2019-04-07T18:00:43.422Z,18.20
2019-04-07T18:03:43.979Z,18.10
2019-04-07T18:06:33.460Z,18.00
2019-04-07T18:09:30.876Z,17.90
2019-04-07T18:12:19.847Z,17.80
2019-04-07T18:15:11.666Z,17.70
2019-04-07T18:18:10.212Z,17.70
2019-04-07T18:20:48.597Z,17.60
2019-04-07T18:23:42.277Z,17.50
2019-04-07T18:26:35.385Z,17.50
2019-04-07T18:29:35.162Z,17.40
2019-04-07T18:32:26.400Z,17.40
2019-04-07T18:35:08.996Z,17.40
2019-04-07T18:38:02.623Z,17.30
2019-04-07T18:40:55.816Z,17.30
2019-04-07T18:43:50.443Z,17.20
2019-04-07T18:46:51.569Z,17.20
2019-04-07T18:49:35.447Z,17.10
2019-04-07T18:52:35.799Z,17.10
2019-04-07T18:55:27.318Z,17.10
2019-04-07T18:58:15.336Z,17.00
2019-04-07T19:01:07.854Z,17.00
2019-04-07T19:03:53.372Z,17.00
2019-04-07T19:06:48.483Z,16.90
2019-04-07T19:09:39.237Z,16.80
2019-04-07T19:12:24.803Z,16.80
2019-04-07T19:15:21.426Z,16.70
2019-04-07T19:18:23.726Z,16.70
2019-04-07T19:21:13.403Z,16.60
2019-04-07T19:24:18.381Z,16.50
2019-04-07T19:27:13.487Z,16.40
2019-04-07T19:30:11.594Z,16.30
2019-04-07T19:33:00.541Z,16.20
2019-04-07T19:35:47.284Z,16.20
2019-04-07T19:38:36.663Z,16.10
2019-04-07T19:41:29.409Z,16.00
2019-04-07T19:44:34.814Z,15.90
2019-04-07T19:47:06.572Z,15.80
2019-04-07T19:49:54.370Z,15.70
2019-04-07T19:52:48.469Z,15.70
2019-04-07T19:55:36.718Z,15.60
2019-04-07T19:58:24.599Z,15.50
2019-04-07T20:01:12.745Z,15.40
2019-04-07T20:03:51.792Z,15.30
2019-04-07T20:06:38.326Z,15.30
2019-04-07T20:09:27.757Z,15.20
2019-04-07T20:12:37.967Z,15.10
2019-04-07T20:15:24.177Z,15.00
2019-04-07T20:18:10.506Z,14.90
2019-04-07T20:20:53.602Z,14.90
2019-04-07T20:23:47.972Z,14.80
2019-04-07T20:26:45.138Z,14.70
2019-04-07T20:29:19.729Z,14.70
2019-04-07T20:32:04.700Z,14.60
2019-04-07T20:34:45.663Z,14.60
2019-04-07T20:37:26.078Z,14.50
2019-04-07T20:40:05.227Z,14.50
2019-04-07T20:42:54.396Z,14.40
2019-04-07T20:45:52.105Z,14.40
2019-04-07T20:48:52.115Z,14.40
2019-04-07T20:51:29.613Z,14.30
2019-04-07T20:54:15.292Z,14.30
2019-04-07T20:57:19.258Z,14.20
2019-04-07T21:00:05.588Z,14.20
2019-04-07T21:03:06.452Z,14.10
2019-04-07T21:05:50.481Z,14.10
2019-04-07T21:08:50.542Z,14.00
2019-04-07T21:11:37.665Z,14.00
2019-04-07T21:14:12.564Z,14.00
2019-04-07T21:17:10.628Z,13.90
2019-04-07T21:19:58.857Z,13.90
2019-04-07T21:22:53.825Z,13.80
2019-04-07T21:25:41.329Z,13.80
2019-04-07T21:28:21.950Z,13.70
2019-04-07T21:31:17.841Z,13.70
2019-04-07T21:34:14.761Z,13.60
2019-04-07T21:37:21.847Z,13.60
2019-04-07T21:40:13.225Z,13.60
2019-04-07T21:42:55.157Z,13.50
2019-04-07T21:45:38.986Z,13.50
2019-04-07T21:48:28.595Z,13.50
2019-04-07T21:51:15.538Z,13.50
2019-04-07T21:53:54.054Z,13.40
2019-04-07T21:56:36.930Z,13.40
2019-04-07T21:59:37.454Z,13.30
2019-04-07T22:02:29.313Z,13.30
2019-04-07T22:05:32.838Z,13.30
2019-04-07T22:08:16.991Z,13.20
2019-04-07T22:10:43.104Z,13.20
2019-04-07T22:13:12.318Z,13.10
2019-04-07T22:15:47.801Z,13.10
2019-04-07T22:18:12.038Z,13.10
2019-04-07T22:20:41.066Z,13.00
2019-04-07T22:23:10.162Z,13.00
2019-04-07T22:25:51.254Z,12.90
2019-04-07T22:28:20.741Z,12.90
2019-04-07T22:30:50.927Z,12.80
2019-04-07T22:33:23.005Z,12.80
2019-04-07T22:35:51.272Z,12.70
2019-04-07T22:38:23.233Z,12.70
2019-04-07T22:40:52.129Z,12.70
2019-04-07T22:43:21.513Z,12.60
2019-04-07T22:45:58.843Z,12.60
2019-04-07T22:48:25.272Z,12.60
2019-04-07T22:50:52.076Z,12.60
2019-04-07T22:53:22.314Z,12.70
2019-04-07T22:55:52.655Z,12.70
2019-04-07T22:58:22.215Z,12.60
2019-04-07T23:00:52.158Z,12.60
2019-04-07T23:03:21.358Z,12.60
2019-04-07T23:05:51.296Z,12.60
2019-04-07T23:08:20.847Z,12.50
2019-04-07T23:10:50.907Z,12.50
2019-04-07T23:13:20.178Z,12.40
2019-04-07T23:15:50.272Z,12.30
2019-04-07T23:18:20.685Z,12.30
2019-04-07T23:20:49.983Z,12.20
2019-04-07T23:23:19.034Z,12.10
2019-04-07T23:25:48.010Z,12.10
2019-04-07T23:28:17.074Z,12.00
2019-04-07T23:30:47.123Z,12.00
2019-04-07T23:33:16.218Z,11.90
2019-04-07T23:35:45.281Z,11.90
2019-04-07T23:38:14.318Z,11.80
2019-04-07T23:40:43.362Z,11.80
2019-04-07T23:43:13.195Z,11.80
2019-04-07T23:45:42.418Z,11.70
2019-04-07T23:48:11.485Z,11.70
2019-04-07T23:50:41.146Z,11.60
2019-04-07T23:53:47.095Z,11.60
2019-04-07T23:56:16.479Z,11.60
2019-04-07T23:58:45.657Z,11.60
